Keysville, Georgia
Current Conditions -  °F | °C
As of 3:53 AM on Monday 22 Dec 2014 (Local Time) from KAGS Reporting Station
Haze Haze  
Wind Chill: 47°   Ceiling: 700
Heat Index: 47°   Visibility: 3mi
Dew Point: 46°   Wind: 3mph
Humidity: 97%   Direction: 50°NE
Pressure: 30.07"   Gusts: NA
Location:  33.23°N, 82.23°W
Report Text: KAGS 220853Z AUTO 05003KT 3SM BR OVC007 08/08 A3007 RMK AO2 RAB16E25 CIG 004V009 SLP182 P0000 60003 T00830078 56013
Loading
Personal Weather Stations






























Interactive Weather Map New forecast layout! Learn more

10-Day Weather Forecast

Advertisements
Track Severe Weather on mobile